EDDKGCLP

Guest
Details From EDDK - Koln Bonn
To GCLP - Gran Canaria - Gando
Flight Number -
Tags Generated
Created
Modified
Stats Distance 1,716 nm / 3,177 km
Max Altitude 0 ft / 0 m
Waypoints 8
Social Downloads 0
Likes 0
Share VATSIM

Download

Looking for another format? Having issues loading an existing format? Contact us
Advertisement - Login to hide

Notes

Generated

Route

EDDK SOMEX BMC23 PODOG BEJ29 3510N ECKOS GCLP

ID Type Via Altitude Latitude Longitude Leg Dist Tot Dist Heading (true) Name
O EDDK APT - 0 ft / 0 m 50.87084˚ 7.12086˚ - 0 nm - -
SOMEX FIX - 0 ft / 0 m 48.21314˚ 3.33433˚ 217 nm 217 nm 224° / 221° -
BMC23 FIX - 0 ft / 0 m 44.72185˚ -0.90290˚ 273 nm 490 nm 221° / 218° -
PODOG FIX - 0 ft / 0 m 41.31194˚ -4.44028˚ 256 nm 747 nm 218° / 216° -
BEJ29 FIX - 0 ft / 0 m 37.99172˚ -7.66128˚ 248 nm 996 nm 218° / 216° -
3510N FIX - 0 ft / 0 m 35.00000˚ -10.00000˚ 212 nm 1208 nm 213° / 211° -
ECKOS FIX - 0 ft / 0 m 28.03739˚ -15.33712˚ 499 nm 1707 nm 215° / 212° -
O GCLP APT - 0 ft / 0 m 27.91818˚ -15.39035˚ 7 nm 1715 nm 202° / 202° -

Altitude Profile

Advertisement - Login to hide

Weather


0- 5 10 15 20 25 30 35+ Temperature / ° C

Clouds and Precipitation
Forecast for 2017-12-19 00:00 UTC. Updated an hour ago

Ground ~20,000 ft ~40,000 ft Winds

EDDK

Details ICAO EDDK (CGN)
Name Koln Bonn
Region Germany - Civil
Timezone Europe/Berlin (UTC+1.0)
Stats Elevation 302 ft / 92 m (AMSL)
Location 50.865801° 7.138903°
Runways 3
Magnetic Variation 1.930° E

METAR

EDDK 182220Z 06002KT 9000 MIFG OVC007 01/01 Q1030 NOSIG

Decode

TAF

TAF EDDK 181700Z 1818/1924 VRB03KT 8000 SCT010 BKN015 TEMPO 1819/1908 4000 BR BKN007 BECMG 1905/1908 BKN010 BECMG 1908/1911 BKN007 TEMPO 1908/1915 2500 DZ BKN004 PROB40 TEMPO 1921/1924 SCT010 BKN015

Decode

Departure Runways

ID Width Length Bearing (true) Bearing (mag) Surface Threshold Offset Overrun Length
06 148 ft / 45 m 8,047 ft / 2,453 m 64.33° 62.40° Concrete 0 ft / 0 m 197 ft / 60 m
14L 197 ft / 60 m 12,497 ft / 3,809 m 137.55° 135.62° Asphalt 0 ft / 0 m 197 ft / 60 m
14R 148 ft / 45 m 6,102 ft / 1,860 m 137.54° 135.61° Asphalt 0 ft / 0 m 197 ft / 60 m
24 148 ft / 45 m 8,047 ft / 2,453 m 244.36° 242.43° Concrete 0 ft / 0 m 197 ft / 60 m
32L 148 ft / 45 m 6,102 ft / 1,860 m 317.56° 315.63° Asphalt 0 ft / 0 m 197 ft / 60 m
32R 197 ft / 60 m 12,497 ft / 3,809 m 317.58° 315.65° Asphalt 0 ft / 0 m 197 ft / 60 m

GCLP

Details ICAO GCLP (LPA)
Name Gran Canaria
Region Canary Islands
Timezone Atlantic/Canary (UTC+0.0)
Stats Elevation 77 ft / 23 m (AMSL)
Location 27.931544° -15.385592°
Runways 2
Magnetic Variation 4.683° W

METAR

GCLP 182200Z 35012KT 9999 FEW018 SCT030 18/14 Q1025 NOSIG

Decode

TAF

TAF GCLP 182000Z 1821/1921 01014KT 9999 SCT030 TX20/1913Z TN16/1906Z= TAF AMD KGRK 182018Z 1820/1922 VRB06KT 1600 BR OVC002 QNH3009INS BECMG 1914/1915 VRB03KT 3200 -RA BR OVC007 QNH3002INS TX14/1821Z TN11/1916Z

Decode

Destination Runways

ID Width Length Bearing (true) Bearing (mag) Surface Threshold Offset Overrun Length
03L 148 ft / 45 m 10,203 ft / 3,110 m 21.33° 26.01° Asphalt 0 ft / 0 m 656 ft / 200 m
03R 148 ft / 45 m 10,200 ft / 3,109 m 21.32° 26.00° Asphalt 0 ft / 0 m 673 ft / 205 m
21L 148 ft / 45 m 10,200 ft / 3,109 m 201.33° 206.01° Asphalt 0 ft / 0 m 689 ft / 210 m
21R 148 ft / 45 m 10,203 ft / 3,110 m 201.33° 206.01° Asphalt 0 ft / 0 m 755 ft / 230 m

Approach Navaids

Runway Type Ident Frequency Range Bearing (true) Bearing (mag) Slope Elevation
03L Localiser ILP 109.90 MHz 18 nm / 33 km 21.33° 26.02° - 77 ft / 23 m (AMSL)
03L Glidescope ILP 109.90 MHz 10 nm / 19 km 21.33° 26.02° 3.00° 102 ft / 31 m (AMSL)
03L DME ILP 109.90 MHz 18 nm / 33 km - - - 102 ft / 31 m (AMSL)
21R Localiser RLP 110.70 MHz 18 nm / 33 km 201.32° 206.01° - 77 ft / 23 m (AMSL)
21R Glidescope RLP 110.70 MHz 10 nm / 19 km 201.33° 206.02° 3.00° 77 ft / 23 m (AMSL)
21R DME RLP 110.70 MHz 18 nm / 33 km - - - 57 ft / 17 m (AMSL)

Popular Alternatives